Time;durP1;ratioP1;P1;durP2;ratioP2;P2;SDS_P1;SDS_P2;PMS_P1;PMS_P2;Temp;Humidity;BMP_temperature;BMP_pressure;BME280_temperature;BME280_humidity;BME280_pressure;Samples;Min_cycle;Max_cycle;Signal;HPM_P1;HPM_P2
2022/07/14 00:00:40;;;;;;;;;;;;;;;;;;10460901;28;19925;-70
2022/07/14 00:05:42;;;;;;;;;;;;;;;;;;10441609;28;19932;-70
2022/07/14 00:10:44;;;;;;;;;;;;;;;;;;10419797;28;19925;-70
2022/07/14 00:15:46;;;;;;;;;;;;;;;;;;10419722;28;19925;-70
2022/07/14 00:20:48;;;;;;;;;;;;;;;;;;10419550;28;19929;-70
2022/07/14 00:25:50;;;;;;;;;;;;;;;;;;10434120;28;19924;-70
2022/07/14 00:30:53;;;;;;;;;;;;;;;;;;10459645;28;19948;-70
2022/07/14 00:35:55;;;;;;;;;;;;;;;;;;10422297;28;19931;-71
2022/07/14 00:40:57;;;;;;;;;;;;;;;;;;10418744;28;19925;-71
2022/07/14 00:45:59;;;;;;;;;;;;;;;;;;10417848;28;19929;-71
2022/07/14 00:51:01;;;;;;;;;;;;;;;;;;10417572;28;20287;-71
2022/07/14 00:56:03;;;;;;;;;;;;;;;;;;10416352;28;20399;-71
2022/07/14 01:01:05;;;;;;;;;;;;;;;;;;10431707;28;19928;-71
2022/07/14 01:06:08;;;;;;;;;;;;;;;;;;10458972;28;19928;-70
2022/07/14 01:11:10;;;;;;;;;;;;;;;;;;10458658;28;19928;-70
2022/07/14 01:16:12;;;;;;;;;;;;;;;;;;10458290;28;19931;-70
2022/07/14 01:21:14;;;;;;;;;;;;;;;;;;10457256;28;19925;-71
2022/07/14 01:26:16;;;;;;;;;;;;;;;;;;10457645;28;20299;-70
2022/07/14 01:31:18;;;;;;;;;;;;;;;;;;10424697;28;19929;-70
2022/07/14 01:36:20;;;;;;;;;;;;;;;;;;10416710;28;19925;-71
2022/07/14 01:41:23;;;;;;;;;;;;;;;;;;10415918;28;19925;-70
2022/07/14 01:46:25;;;;;;;;;;;;;;;;;;10449583;28;19931;-71
2022/07/14 01:51:27;;;;;;;;;;;;;;;;;;10457447;28;20024;-70
2022/07/14 01:56:29;;;;;;;;;;;;;;;;;;10448918;28;19929;-70
2022/07/14 02:01:40;;;;;;;;;;;;;;;;;;10416060;28;19925;-71
2022/07/14 02:06:43;;;;;;;;;;;;;;;;;;10416066;28;19932;-70
2022/07/14 02:17:06;;;;;;;;;;;;;;;;;;10415190;28;20323;-70
2022/07/14 02:22:08;;;;;;;;;;;;;;;;;;10415758;28;19933;-70
2022/07/14 02:27:10;;;;;;;;;;;;;;;;;;10445785;28;19929;-70
2022/07/14 02:32:12;;;;;;;;;;;;;;;;;;10456640;28;19925;-70
2022/07/14 02:37:14;;;;;;;;;;;;;;;;;;10457497;28;19925;-70
2022/07/14 02:42:16;;;;;;;;;;;;;;;;;;10455636;28;19936;-70
2022/07/14 02:47:19;;;;;;;;;;;;;;;;;;10455678;28;20388;-70
2022/07/14 02:52:21;;;;;;;;;;;;;;;;;;10449474;28;19929;-70
2022/07/14 02:57:23;;;;;;;;;;;;;;;;;;10418365;28;20257;-70
2022/07/14 03:02:25;;;;;;;;;;;;;;;;;;10422598;28;19925;-70
2022/07/14 03:07:27;;;;;;;;;;;;;;;;;;10422424;28;19925;-70
2022/07/14 03:12:29;;;;;;;;;;;;;;;;;;10421607;28;19936;-71
2022/07/14 03:17:31;;;;;;;;;;;;;;;;;;10422033;28;19925;-70
2022/07/14 03:22:33;;;;;;;;;;;;;;;;;;10446118;28;20024;-70
2022/07/14 03:27:35;;;;;;;;;;;;;;;;;;10462798;28;19932;-70
2022/07/14 03:32:38;;;;;;;;;;;;;;;;;;10462057;28;20387;-70
2022/07/14 03:37:41;;;;;;;;;;;;;;;;;;10461538;28;20375;-70
2022/07/14 03:42:44;;;;;;;;;;;;;;;;;;10461467;28;20382;-70
2022/07/14 03:47:51;;;;;;;;;;;;;;;;;;10459448;28;19933;-70
2022/07/14 03:52:54;;;;;;;;;;;;;;;;;;10420613;28;19932;-71
2022/07/14 03:58:00;;;;;;;;;;;;;;;;;;10419850;28;19932;-69
2022/07/14 04:03:02;;;;;;;;;;;;;;;;;;10419626;28;19948;-70
2022/07/14 04:08:04;;;;;;;;;;;;;;;;;;10419459;28;19929;-70
2022/07/14 04:13:06;;;;;;;;;;;;;;;;;;10420093;28;19931;-71
2022/07/14 04:18:09;;;;;;;;;;;;;;;;;;10439927;28;20285;-70
2022/07/14 04:23:11;;;;;;;;;;;;;;;;;;10460673;28;19925;-70
2022/07/14 04:28:13;;;;;;;;;;;;;;;;;;10459796;28;19999;-70
2022/07/14 04:33:15;;;;;;;;;;;;;;;;;;10459394;28;20364;-70
2022/07/14 04:38:17;;;;;;;;;;;;;;;;;;10460135;28;19925;-70
2022/07/14 04:43:19;;;;;;;;;;;;;;;;;;10459496;28;19935;-70
2022/07/14 04:48:21;;;;;;;;;;;;;;;;;;10420293;28;19924;-70
2022/07/14 04:53:23;;;;;;;;;;;;;;;;;;10418734;28;19940;-71
2022/07/14 04:58:25;;;;;;;;;;;;;;;;;;10418080;28;19925;-70
2022/07/14 05:03:27;;;;;;;;;;;;;;;;;;10417232;28;20422;-70
2022/07/14 05:08:30;;;;;;;;;;;;;;;;;;10416990;28;20296;-70
2022/07/14 05:13:32;;;;;;;;;;;;;;;;;;10417457;28;19925;-70
2022/07/14 05:18:34;;;;;;;;;;;;;;;;;;10430911;28;19938;-70
2022/07/14 05:23:36;;;;;;;;;;;;;;;;;;10457483;28;19948;-70
2022/07/14 05:28:38;;;;;;;;;;;;;;;;;;10457458;28;20364;-70
2022/07/14 05:33:41;;;;;;;;;;;;;;;;;;10456294;28;19925;-70
2022/07/14 05:38:43;;;;;;;;;;;;;;;;;;10458343;28;19941;-70
2022/07/14 05:43:45;;;;;;;;;;;;;;;;;;10453447;28;20372;-70
2022/07/14 05:48:47;;;;;;;;;;;;;;;;;;10416362;28;19925;-70
2022/07/14 05:53:49;;;;;;;;;;;;;;;;;;10416589;28;19936;-70
2022/07/14 05:58:51;;;;;;;;;;;;;;;;;;10415514;28;20380;-70
2022/07/14 06:03:56;;;;;;;;;;;;;;;;;;10430212;28;19932;-70
2022/07/14 06:08:58;;;;;;;;;;;;;;;;;;10449220;28;19935;-70
2022/07/14 06:14:01;;;;;;;;;;;;;;;;;;10456888;28;19925;-70
2022/07/14 06:19:04;;;;;;;;;;;;;;;;;;10456344;28;19925;-71
2022/07/14 06:24:08;;;;;;;;;;;;;;;;;;10456229;28;20411;-70
2022/07/14 06:29:11;;;;;;;;;;;;;;;;;;10456674;28;19925;-70
2022/07/14 06:34:13;;;;;;;;;;;;;;;;;;10464673;28;19947;-70
2022/07/14 06:39:16;;;;;;;;;;;;;;;;;;10464817;28;19929;-70
2022/07/14 06:44:18;;;;;;;;;;;;;;;;;;10464296;28;19929;-70
2022/07/14 06:49:25;;;;;;;;;;;;;;;;;;10464377;28;19928;-70
2022/07/14 06:54:27;;;;;;;;;;;;;;;;;;10463589;28;20288;-70
2022/07/14 06:59:29;;;;;;;;;;;;;;;;;;10444839;23;19932;-70
2022/07/14 07:04:31;;;;;;;;;;;;;;;;;;10422557;28;19932;-71
2022/07/14 07:09:34;;;;;;;;;;;;;;;;;;10422198;28;19932;-70
2022/07/14 07:14:36;;;;;;;;;;;;;;;;;;10421389;28;19929;-71
2022/07/14 07:19:40;;;;;;;;;;;;;;;;;;10420238;28;19932;-71
2022/07/14 07:24:42;;;;;;;;;;;;;;;;;;10410231;28;20030;-70
2022/07/14 07:29:44;;;;;;;;;;;;;;;;;;10410264;28;19925;-71
2022/07/14 07:34:47;;;;;;;;;;;;;;;;;;10420532;28;20422;-71
2022/07/14 07:39:49;;;;;;;;;;;;;;;;;;10403079;28;19932;-72
2022/07/14 07:44:52;;;;;;;;;;;;;;;;;;10419744;28;19925;-71
2022/07/14 07:49:54;;;;;;;;;;;;;;;;;;10417616;28;19929;-71
2022/07/14 07:54:56;;;;;;;;;;;;;;;;;;10413693;28;19928;-70
2022/07/14 08:00:18;;;;;;;;;;;;;;;;;;10412713;28;20376;-71
2022/07/14 08:05:21;;;;;;;;;;;;;;;;;;10411853;28;19940;-72
2022/07/14 08:10:44;;;;;;;;;;;;;;;;;;10411982;28;20446;-65
2022/07/14 08:15:46;;;;;;;;;;;;;;;;;;10411786;28;20357;-70
2022/07/14 08:20:49;;;;;;;;;;;;;;;;;;10412622;28;19932;-70
2022/07/14 08:25:51;;;;;;;;;;;;;;;;;;10411928;28;19936;-70
2022/07/14 08:30:53;;;;;;;;;;;;;;;;;;10412752;28;19936;-71
2022/07/14 08:35:56;;;;;;;;;;;;;;;;;;10412542;28;19979;-71
2022/07/14 08:40:58;;;;;;;;;;;;;;;;;;10411899;28;19929;-70
2022/07/14 08:46:00;;;;;;;;;;;;;;;;;;10411345;28;19933;-70
2022/07/14 08:51:02;;;;;;;;;;;;;;;;;;10410715;28;19929;-66
2022/07/14 08:56:04;;;;;;;;;;;;;;;;;;10410646;28;20028;-72
2022/07/14 09:01:06;;;;;;;;;;;;;;;;;;10410671;28;19929;-72
2022/07/14 09:06:09;;;;;;;;;;;;;;;;;;10410320;28;19929;-72
2022/07/14 09:11:11;;;;;;;;;;;;;;;;;;10410676;28;19929;-72
2022/07/14 09:16:13;;;;;;;;;;;;;;;;;;10409767;28;19929;-72
2022/07/14 09:21:17;;;;;;;;;;;;;;;;;;10409671;28;19929;-72
2022/07/14 09:26:20;;;;;;;;;;;;;;;;;;10409643;28;20284;-74
2022/07/14 09:31:22;;;;;;;;;;;;;;;;;;10409205;28;19929;-75
2022/07/14 09:36:26;;;;;;;;;;;;;;;;;;10409215;28;19925;-74
2022/07/14 09:41:29;;;;;;;;;;;;;;;;;;10408969;28;20375;-74
2022/07/14 09:46:31;;;;;;;;;;;;;;;;;;10409616;28;19972;-74
2022/07/14 09:51:33;;;;;;;;;;;;;;;;;;10408925;28;19979;-74
2022/07/14 09:56:35;;;;;;;;;;;;;;;;;;10407147;28;20399;-74
2022/07/14 10:01:37;;;;;;;;;;;;;;;;;;10407072;28;19929;-74
2022/07/14 10:06:40;;;;;;;;;;;;;;;;;;10408390;28;19956;-73
2022/07/14 10:11:42;;;;;;;;;;;;;;;;;;10407455;28;19929;-73
2022/07/14 10:16:44;;;;;;;;;;;;;;;;;;10408800;28;19929;-73
2022/07/14 10:21:47;;;;;;;;;;;;;;;;;;10406327;28;19951;-73
2022/07/14 10:26:49;;;;;;;;;;;;;;;;;;10408262;28;19929;-73
2022/07/14 10:31:51;;;;;;;;;;;;;;;;;;10411890;28;19929;-73
2022/07/14 10:36:53;;;;;;;;;;;;;;;;;;10415334;28;19925;-74
2022/07/14 10:41:55;;;;;;;;;;;;;;;;;;10413484;28;20328;-73
2022/07/14 10:46:57;;;;;;;;;;;;;;;;;;10414570;28;19929;-73
2022/07/14 10:51:59;;;;;;;;;;;;;;;;;;10415016;28;19925;-74
2022/07/14 10:57:01;;;;;;;;;;;;;;;;;;10414214;28;20280;-73
2022/07/14 11:02:14;;;;;;;;;;;;;;;;;;10413908;28;19956;-74
2022/07/14 11:07:16;;;;;;;;;;;;;;;;;;10414697;28;19925;-73
2022/07/14 11:12:18;;;;;;;;;;;;;;;;;;10413518;28;19931;-74
2022/07/14 11:17:20;;;;;;;;;;;;;;;;;;10414777;28;19952;-74
2022/07/14 11:22:24;;;;;;;;;;;;;;;;;;10420075;28;20372;-74
2022/07/14 11:27:27;;;;;;;;;;;;;;;;;;10421022;28;19925;-77
2022/07/14 11:32:29;;;;;;;;;;;;;;;;;;10420934;28;19932;-74
2022/07/14 11:37:33;;;;;;;;;;;;;;;;;;10419636;28;19929;-75
2022/07/14 11:42:47;;;;;;;;;;;;;;;;;;10421198;28;19932;-75
2022/07/14 11:47:50;;;;;;;;;;;;;;;;;;10420970;28;19932;-74
2022/07/14 11:52:53;;;;;;;;;;;;;;;;;;10420638;28;19925;-74
2022/07/14 11:57:55;;;;;;;;;;;;;;;;;;10420336;28;19931;-77
2022/07/14 12:02:58;;;;;;;;;;;;;;;;;;10420023;28;20288;-74
2022/07/14 12:08:00;;;;;;;;;;;;;;;;;;10419898;28;19925;-74
2022/07/14 12:13:03;;;;;;;;;;;;;;;;;;10400002;28;19931;-74
2022/07/14 12:18:06;;;;;;;;;;;;;;;;;;10415299;28;20075;-74
2022/07/14 12:23:08;;;;;;;;;;;;;;;;;;10418789;28;20016;-74
2022/07/14 12:28:10;;;;;;;;;;;;;;;;;;10418030;28;19947;-66
2022/07/14 12:33:12;;;;;;;;;;;;;;;;;;10418509;28;19925;-66
2022/07/14 12:38:14;;;;;;;;;;;;;;;;;;10418284;28;19933;-66
2022/07/14 12:43:19;;;;;;;;;;;;;;;;;;10418279;28;19925;-66
2022/07/14 12:48:21;;;;;;;;;;;;;;;;;;10417695;28;19929;-66
2022/07/14 12:53:23;;;;;;;;;;;;;;;;;;10417180;28;19925;-66
2022/07/14 12:58:25;;;;;;;;;;;;;;;;;;10415187;28;19925;-67
2022/07/14 13:03:27;;;;;;;;;;;;;;;;;;10417156;28;20368;-67
2022/07/14 13:08:29;;;;;;;;;;;;;;;;;;10412132;28;19925;-67
2022/07/14 13:13:31;;;;;;;;;;;;;;;;;;10410644;28;19944;-66
2022/07/14 13:18:33;;;;;;;;;;;;;;;;;;10416465;28;19936;-66
2022/07/14 13:23:36;;;;;;;;;;;;;;;;;;10416719;28;20508;-66
2022/07/14 13:28:38;;;;;;;;;;;;;;;;;;10416101;28;19925;-66
2022/07/14 13:33:40;;;;;;;;;;;;;;;;;;10415195;28;19925;-66
2022/07/14 13:38:42;;;;;;;;;;;;;;;;;;10415825;28;20007;-66
2022/07/14 13:43:45;;;;;;;;;;;;;;;;;;10415416;28;19925;-66
2022/07/14 13:48:47;;;;;;;;;;;;;;;;;;10416129;28;20332;-66
2022/07/14 13:53:49;;;;;;;;;;;;;;;;;;10416246;28;19925;-67
2022/07/14 13:58:51;;;;;;;;;;;;;;;;;;10415484;28;20373;-66
2022/07/14 14:03:53;;;;;;;;;;;;;;;;;;10415375;28;19925;-66
2022/07/14 14:09:15;;;;;;;;;;;;;;;;;;10415198;28;19971;-66
2022/07/14 14:14:18;;;;;;;;;;;;;;;;;;10415002;28;19926;-66
2022/07/14 14:19:20;;;;;;;;;;;;;;;;;;10414784;28;20291;-66
2022/07/14 14:24:22;;;;;;;;;;;;;;;;;;10414517;28;19925;-66
2022/07/14 14:29:24;;;;;;;;;;;;;;;;;;10414644;28;19925;-66
2022/07/14 14:34:27;;;;;;;;;;;;;;;;;;10414918;28;20364;-66
2022/07/14 14:39:30;;;;;;;;;;;;;;;;;;10414428;28;20055;-66
2022/07/14 14:44:33;;;;;;;;;;;;;;;;;;10413833;28;20395;-66
2022/07/14 14:49:35;;;;;;;;;;;;;;;;;;10414394;28;20383;-66
2022/07/14 14:54:38;;;;;;;;;;;;;;;;;;10420571;28;20288;-66
2022/07/14 14:59:40;;;;;;;;;;;;;;;;;;10421738;28;19929;-66
2022/07/14 15:04:42;;;;;;;;;;;;;;;;;;10405559;28;20404;-66
2022/07/14 15:09:44;;;;;;;;;;;;;;;;;;10422129;28;19929;-66
2022/07/14 15:14:46;;;;;;;;;;;;;;;;;;10421690;28;19925;-66
2022/07/14 15:19:48;;;;;;;;;;;;;;;;;;10399873;28;19929;-66
2022/07/14 15:24:50;;;;;;;;;;;;;;;;;;10402046;28;19929;-66
2022/07/14 15:29:52;;;;;;;;;;;;;;;;;;10413828;28;19929;-66
2022/07/14 15:34:54;;;;;;;;;;;;;;;;;;10413955;28;20284;-66
2022/07/14 15:45:18;;;;;;;;;;;;;;;;;;10413473;28;19929;-66
2022/07/14 15:50:20;;;;;;;;;;;;;;;;;;10413880;28;19929;-66
2022/07/14 15:55:22;;;;;;;;;;;;;;;;;;10413482;28;19940;-66
2022/07/14 16:00:25;;;;;;;;;;;;;;;;;;10412583;28;19936;-66
2022/07/14 16:05:27;;;;;;;;;;;;;;;;;;10411858;28;19929;-66
2022/07/14 16:10:29;;;;;;;;;;;;;;;;;;10411887;28;20486;-67
2022/07/14 16:15:31;;;;;;;;;;;;;;;;;;10412305;28;20391;-67
2022/07/14 16:20:33;;;;;;;;;;;;;;;;;;10411792;28;20016;-67
2022/07/14 16:25:36;;;;;;;;;;;;;;;;;;10411878;28;19968;-67
2022/07/14 16:30:38;;;;;;;;;;;;;;;;;;10411922;28;19929;-66
2022/07/14 16:35:40;;;;;;;;;;;;;;;;;;10411144;28;20376;-67
2022/07/14 16:40:42;;;;;;;;;;;;;;;;;;10412050;28;19940;-66
2022/07/14 16:45:44;;;;;;;;;;;;;;;;;;10411181;28;19929;-66
2022/07/14 16:50:47;;;;;;;;;;;;;;;;;;10411358;28;20232;-66
2022/07/14 16:55:49;;;;;;;;;;;;;;;;;;10411264;28;19967;-66
2022/07/14 17:00:51;;;;;;;;;;;;;;;;;;10410357;28;19929;-67
2022/07/14 17:11:15;;;;;;;;;;;;;;;;;;10410514;28;19979;-67
2022/07/14 17:16:18;;;;;;;;;;;;;;;;;;10409628;28;19932;-67
2022/07/14 17:21:24;;;;;;;;;;;;;;;;;;10410426;28;19936;-67
2022/07/14 17:26:26;;;;;;;;;;;;;;;;;;10411664;28;20391;-73
2022/07/14 17:31:28;;;;;;;;;;;;;;;;;;10415960;28;19932;-73
2022/07/14 17:36:31;;;;;;;;;;;;;;;;;;10415748;28;20408;-73
2022/07/14 17:41:33;;;;;;;;;;;;;;;;;;10415980;28;20377;-73
2022/07/14 17:46:35;;;;;;;;;;;;;;;;;;10415577;28;19925;-73
2022/07/14 17:57:00;;;;;;;;;;;;;;;;;;10414673;28;21519;-73
2022/07/14 18:02:02;;;;;;;;;;;;;;;;;;10415244;28;20396;-73
2022/07/14 18:07:05;;;;;;;;;;;;;;;;;;10415994;28;20003;-75
2022/07/14 18:12:08;;;;;;;;;;;;;;;;;;10416535;28;19931;-74
2022/07/14 18:17:10;;;;;;;;;;;;;;;;;;10414416;28;19957;-74
2022/07/14 18:22:12;;;;;;;;;;;;;;;;;;10414700;28;20479;-74
2022/07/14 18:27:20;;;;;;;;;;;;;;;;;;10387104;28;19925;-74
2022/07/14 18:32:22;;;;;;;;;;;;;;;;;;10422272;28;20419;-74
2022/07/14 18:37:24;;;;;;;;;;;;;;;;;;10423113;28;20328;-74
2022/07/14 18:42:26;;;;;;;;;;;;;;;;;;10423318;28;19925;-74
2022/07/14 18:47:28;;;;;;;;;;;;;;;;;;10423171;28;19948;-74
2022/07/14 18:52:31;;;;;;;;;;;;;;;;;;10404998;28;20012;-74
2022/07/14 18:57:33;;;;;;;;;;;;;;;;;;10423229;28;19925;-73
2022/07/14 19:02:35;;;;;;;;;;;;;;;;;;10422479;28;19925;-74
2022/07/14 19:07:38;;;;;;;;;;;;;;;;;;10421787;28;20446;-74
2022/07/14 19:12:40;;;;;;;;;;;;;;;;;;10427966;22;19926;-66
2022/07/14 19:17:42;;;;;;;;;;;;;;;;;;10381444;28;19925;-66
2022/07/14 19:22:44;;;;;;;;;;;;;;;;;;10381253;28;19935;-66
2022/07/14 19:27:46;;;;;;;;;;;;;;;;;;10406962;28;20288;-66
2022/07/14 19:32:55;;;;;;;;;;;;;;;;;;10421150;28;19932;-66
2022/07/14 19:37:57;;;;;;;;;;;;;;;;;;10420280;28;19931;-66
2022/07/14 19:43:00;;;;;;;;;;;;;;;;;;10421352;28;19925;-66
2022/07/14 19:48:03;;;;;;;;;;;;;;;;;;10420201;28;19969;-66
2022/07/14 19:53:05;;;;;;;;;;;;;;;;;;10402956;28;19925;-66
2022/07/14 19:58:07;;;;;;;;;;;;;;;;;;10420126;28;19932;-66
2022/07/14 20:03:09;;;;;;;;;;;;;;;;;;10419799;28;20265;-66
2022/07/14 20:08:11;;;;;;;;;;;;;;;;;;10419749;28;20459;-66
2022/07/14 20:13:14;;;;;;;;;;;;;;;;;;10419059;28;19925;-66
2022/07/14 20:18:16;;;;;;;;;;;;;;;;;;10420005;28;19932;-65
2022/07/14 20:23:18;;;;;;;;;;;;;;;;;;10401429;28;20331;-66
2022/07/14 20:33:41;;;;;;;;;;;;;;;;;;10419229;28;19932;-66
2022/07/14 20:38:43;;;;;;;;;;;;;;;;;;10418930;28;19925;-66
2022/07/14 20:43:45;;;;;;;;;;;;;;;;;;10417776;28;19925;-66
2022/07/14 20:48:47;;;;;;;;;;;;;;;;;;10415781;28;19932;-66
2022/07/14 20:53:49;;;;;;;;;;;;;;;;;;10416911;28;19931;-66
2022/07/14 20:58:52;;;;;;;;;;;;;;;;;;10417381;28;19925;-66
2022/07/14 21:03:54;;;;;;;;;;;;;;;;;;10417377;28;19952;-66
2022/07/14 21:08:56;;;;;;;;;;;;;;;;;;10417787;28;19925;-65
2022/07/14 21:13:58;;;;;;;;;;;;;;;;;;10399859;28;19925;-66
2022/07/14 21:19:02;;;;;;;;;;;;;;;;;;10417657;28;19932;-66
2022/07/14 21:24:04;;;;;;;;;;;;;;;;;;10416599;28;19929;-67
2022/07/14 21:29:06;;;;;;;;;;;;;;;;;;10417263;28;19925;-66
2022/07/14 21:34:10;;;;;;;;;;;;;;;;;;10416138;28;19925;-66
2022/07/14 21:39:12;;;;;;;;;;;;;;;;;;10416204;28;19925;-65
2022/07/14 21:44:14;;;;;;;;;;;;;;;;;;10416736;28;19936;-65
2022/07/14 21:49:16;;;;;;;;;;;;;;;;;;10415818;28;20387;-66
2022/07/14 21:54:18;;;;;;;;;;;;;;;;;;10415754;28;19925;-66
2022/07/14 21:59:20;;;;;;;;;;;;;;;;;;10416321;28;19925;-66
2022/07/14 22:04:26;;;;;;;;;;;;;;;;;;10415529;28;19925;-66
2022/07/14 22:09:28;;;;;;;;;;;;;;;;;;10415180;28;19932;-66
2022/07/14 22:14:30;;;;;;;;;;;;;;;;;;10415112;28;20360;-66
2022/07/14 22:19:33;;;;;;;;;;;;;;;;;;10415850;28;20000;-66
2022/07/14 22:24:35;;;;;;;;;;;;;;;;;;10414914;28;19932;-66
2022/07/14 22:29:37;;;;;;;;;;;;;;;;;;10414964;28;20265;-66
2022/07/14 22:34:40;;;;;;;;;;;;;;;;;;10415215;28;19932;-66
2022/07/14 22:39:42;;;;;;;;;;;;;;;;;;10414756;28;19925;-66
2022/07/14 22:44:44;;;;;;;;;;;;;;;;;;10414753;28;19929;-66
2022/07/14 22:49:46;;;;;;;;;;;;;;;;;;10415285;28;19925;-66
2022/07/14 22:54:48;;;;;;;;;;;;;;;;;;10414626;28;19925;-66
2022/07/14 22:59:50;;;;;;;;;;;;;;;;;;10414566;28;20287;-65
2022/07/14 23:04:52;;;;;;;;;;;;;;;;;;10415037;28;19972;-66
2022/07/14 23:09:54;;;;;;;;;;;;;;;;;;10414719;28;20003;-66
2022/07/14 23:20:17;;;;;;;;;;;;;;;;;;10421464;28;19931;-66
2022/07/14 23:25:19;;;;;;;;;;;;;;;;;;10421458;28;19925;-66
2022/07/14 23:30:21;;;;;;;;;;;;;;;;;;10421767;28;19925;-66
2022/07/14 23:35:24;;;;;;;;;;;;;;;;;;10420962;28;19937;-66
2022/07/14 23:40:26;;;;;;;;;;;;;;;;;;10420738;28;20380;-66
2022/07/14 23:45:28;;;;;;;;;;;;;;;;;;10420958;28;19933;-66
2022/07/14 23:50:30;;;;;;;;;;;;;;;;;;10420515;28;19991;-66
2022/07/14 23:55:32;;;;;;;;;;;;;;;;;;10420060;28;19932;-66
